sensor_id;sensor_type;location;lat;lon;timestamp;temperature;humidity
45066;DHT22;30830;53.704;10.004;2023-11-19T00:02:11;4.70;99.90
45066;DHT22;30830;53.704;10.004;2023-11-19T00:04:37;4.80;99.90
45066;DHT22;30830;53.704;10.004;2023-11-19T00:07:05;4.80;99.90
45066;DHT22;30830;53.704;10.004;2023-11-19T00:09:33;4.80;99.90
45066;DHT22;30830;53.704;10.004;2023-11-19T00:11:58;4.80;99.90
45066;DHT22;30830;53.704;10.004;2023-11-19T00:14:26;4.80;99.90
45066;DHT22;30830;53.704;10.004;2023-11-19T00:16:51;4.80;99.90
45066;DHT22;30830;53.704;10.004;2023-11-19T00:19:17;4.80;99.90
45066;DHT22;30830;53.704;10.004;2023-11-19T00:21:42;4.80;99.90
45066;DHT22;30830;53.704;10.004;2023-11-19T00:24:09;4.80;99.90
45066;DHT22;30830;53.704;10.004;2023-11-19T00:26:34;4.80;99.90
45066;DHT22;30830;53.704;10.004;2023-11-19T00:29:00;4.80;99.90
45066;DHT22;30830;53.704;10.004;2023-11-19T00:31:25;4.80;99.90
45066;DHT22;30830;53.704;10.004;2023-11-19T00:33:53;4.80;99.90
45066;DHT22;30830;53.704;10.004;2023-11-19T00:36:19;4.80;99.90
45066;DHT22;30830;53.704;10.004;2023-11-19T00:38:44;4.80;99.90
45066;DHT22;30830;53.704;10.004;2023-11-19T00:41:10;4.80;99.90
45066;DHT22;30830;53.704;10.004;2023-11-19T00:43:36;4.80;99.90
45066;DHT22;30830;53.704;10.004;2023-11-19T00:46:02;4.80;99.90
45066;DHT22;30830;53.704;10.004;2023-11-19T00:48:28;4.90;99.90
45066;DHT22;30830;53.704;10.004;2023-11-19T00:50:54;4.90;99.90
45066;DHT22;30830;53.704;10.004;2023-11-19T00:53:19;4.90;99.90
45066;DHT22;30830;53.704;10.004;2023-11-19T00:55:45;4.90;99.90
45066;DHT22;30830;53.704;10.004;2023-11-19T00:58:10;4.90;99.90
45066;DHT22;30830;53.704;10.004;2023-11-19T01:00:36;4.90;99.90
45066;DHT22;30830;53.704;10.004;2023-11-19T01:03:01;4.90;99.90
45066;DHT22;30830;53.704;10.004;2023-11-19T01:05:27;4.90;99.90
45066;DHT22;30830;53.704;10.004;2023-11-19T01:07:53;4.90;99.90
45066;DHT22;30830;53.704;10.004;2023-11-19T01:10:19;4.90;99.90
45066;DHT22;30830;53.704;10.004;2023-11-19T01:12:45;4.90;99.90
45066;DHT22;30830;53.704;10.004;2023-11-19T01:15:11;4.90;99.90
45066;DHT22;30830;53.704;10.004;2023-11-19T01:17:38;4.90;99.90
45066;DHT22;30830;53.704;10.004;2023-11-19T01:20:04;4.90;99.90
45066;DHT22;30830;53.704;10.004;2023-11-19T01:22:32;4.90;99.90
45066;DHT22;30830;53.704;10.004;2023-11-19T01:24:58;4.90;99.90
45066;DHT22;30830;53.704;10.004;2023-11-19T01:27:24;4.90;99.90
45066;DHT22;30830;53.704;10.004;2023-11-19T01:29:50;5.00;99.90
45066;DHT22;30830;53.704;10.004;2023-11-19T01:32:15;5.00;99.90
45066;DHT22;30830;53.704;10.004;2023-11-19T01:34:41;5.00;99.90
45066;DHT22;30830;53.704;10.004;2023-11-19T01:37:06;5.00;99.90
45066;DHT22;30830;53.704;10.004;2023-11-19T01:39:34;5.00;99.90
45066;DHT22;30830;53.704;10.004;2023-11-19T01:42:00;5.00;99.90
45066;DHT22;30830;53.704;10.004;2023-11-19T01:44:25;5.00;99.90
45066;DHT22;30830;53.704;10.004;2023-11-19T01:46:51;5.00;99.90
45066;DHT22;30830;53.704;10.004;2023-11-19T01:49:17;5.00;99.90
45066;DHT22;30830;53.704;10.004;2023-11-19T01:51:45;5.00;99.90
45066;DHT22;30830;53.704;10.004;2023-11-19T01:54:11;5.00;99.90
45066;DHT22;30830;53.704;10.004;2023-11-19T01:56:38;5.00;99.90
45066;DHT22;30830;53.704;10.004;2023-11-19T01:59:07;5.00;99.90
45066;DHT22;30830;53.704;10.004;2023-11-19T02:01:35;5.00;99.90
45066;DHT22;30830;53.704;10.004;2023-11-19T02:04:08;5.00;99.90
45066;DHT22;30830;53.704;10.004;2023-11-19T02:06:34;5.00;99.90
45066;DHT22;30830;53.704;10.004;2023-11-19T02:09:01;5.00;99.90
45066;DHT22;30830;53.704;10.004;2023-11-19T02:11:33;5.00;99.90
45066;DHT22;30830;53.704;10.004;2023-11-19T02:13:59;5.00;99.90
45066;DHT22;30830;53.704;10.004;2023-11-19T02:16:24;5.00;99.90
45066;DHT22;30830;53.704;10.004;2023-11-19T02:18:50;5.00;99.90
45066;DHT22;30830;53.704;10.004;2023-11-19T02:21:15;5.00;99.90
45066;DHT22;30830;53.704;10.004;2023-11-19T02:23:42;5.10;99.90
45066;DHT22;30830;53.704;10.004;2023-11-19T02:28:39;5.10;99.90
45066;DHT22;30830;53.704;10.004;2023-11-19T02:31:07;5.10;99.90
45066;DHT22;30830;53.704;10.004;2023-11-19T02:33:37;5.10;99.90
45066;DHT22;30830;53.704;10.004;2023-11-19T02:36:07;5.10;99.90
45066;DHT22;30830;53.704;10.004;2023-11-19T02:38:34;5.10;99.90
45066;DHT22;30830;53.704;10.004;2023-11-19T02:41:02;5.10;99.90
45066;DHT22;30830;53.704;10.004;2023-11-19T02:43:30;5.10;99.90
45066;DHT22;30830;53.704;10.004;2023-11-19T02:46:05;5.10;99.90
45066;DHT22;30830;53.704;10.004;2023-11-19T02:48:34;5.10;99.90
45066;DHT22;30830;53.704;10.004;2023-11-19T02:51:04;5.10;99.90
45066;DHT22;30830;53.704;10.004;2023-11-19T02:53:30;5.10;99.90
45066;DHT22;30830;53.704;10.004;2023-11-19T02:55:56;5.10;99.90
45066;DHT22;30830;53.704;10.004;2023-11-19T02:58:28;5.10;99.90
45066;DHT22;30830;53.704;10.004;2023-11-19T03:00:54;5.20;99.90
45066;DHT22;30830;53.704;10.004;2023-11-19T03:03:26;5.10;99.90
45066;DHT22;30830;53.704;10.004;2023-11-19T03:06:07;5.20;99.90
45066;DHT22;30830;53.704;10.004;2023-11-19T03:08:34;5.20;99.90
45066;DHT22;30830;53.704;10.004;2023-11-19T03:11:00;5.20;99.90
45066;DHT22;30830;53.704;10.004;2023-11-19T03:13:26;5.20;99.90
45066;DHT22;30830;53.704;10.004;2023-11-19T03:15:52;5.20;99.90
45066;DHT22;30830;53.704;10.004;2023-11-19T03:18:19;5.20;99.90
45066;DHT22;30830;53.704;10.004;2023-11-19T03:20:46;5.20;99.90
45066;DHT22;30830;53.704;10.004;2023-11-19T03:23:11;5.20;99.90
45066;DHT22;30830;53.704;10.004;2023-11-19T03:25:37;5.20;99.90
45066;DHT22;30830;53.704;10.004;2023-11-19T03:28:03;5.20;99.90
45066;DHT22;30830;53.704;10.004;2023-11-19T03:30:30;5.30;99.90
45066;DHT22;30830;53.704;10.004;2023-11-19T03:32:56;5.30;99.90
45066;DHT22;30830;53.704;10.004;2023-11-19T03:35:22;5.30;99.90
45066;DHT22;30830;53.704;10.004;2023-11-19T03:37:48;5.30;99.90
45066;DHT22;30830;53.704;10.004;2023-11-19T03:40:14;5.30;99.90
45066;DHT22;30830;53.704;10.004;2023-11-19T03:42:40;5.30;99.90
45066;DHT22;30830;53.704;10.004;2023-11-19T03:45:08;5.30;99.90
45066;DHT22;30830;53.704;10.004;2023-11-19T03:47:34;5.30;99.90
45066;DHT22;30830;53.704;10.004;2023-11-19T03:50:01;5.40;99.90
45066;DHT22;30830;53.704;10.004;2023-11-19T03:52:26;5.40;99.90
45066;DHT22;30830;53.704;10.004;2023-11-19T03:54:55;5.40;99.90
45066;DHT22;30830;53.704;10.004;2023-11-19T03:57:22;5.40;99.90
45066;DHT22;30830;53.704;10.004;2023-11-19T03:59:47;5.40;99.90
45066;DHT22;30830;53.704;10.004;2023-11-19T04:02:13;5.40;99.90
45066;DHT22;30830;53.704;10.004;2023-11-19T04:04:39;5.50;99.90
45066;DHT22;30830;53.704;10.004;2023-11-19T04:07:05;5.50;99.90
45066;DHT22;30830;53.704;10.004;2023-11-19T04:09:31;5.50;99.90
45066;DHT22;30830;53.704;10.004;2023-11-19T04:12:00;5.50;99.90
45066;DHT22;30830;53.704;10.004;2023-11-19T04:14:26;5.50;99.90
45066;DHT22;30830;53.704;10.004;2023-11-19T04:16:52;5.60;99.90
45066;DHT22;30830;53.704;10.004;2023-11-19T04:19:21;5.60;99.90
45066;DHT22;30830;53.704;10.004;2023-11-19T04:21:47;5.70;99.90
45066;DHT22;30830;53.704;10.004;2023-11-19T04:24:13;5.60;99.90
45066;DHT22;30830;53.704;10.004;2023-11-19T04:26:43;5.60;99.90
45066;DHT22;30830;53.704;10.004;2023-11-19T04:29:13;5.70;99.90
45066;DHT22;30830;53.704;10.004;2023-11-19T04:31:40;5.70;99.90
45066;DHT22;30830;53.704;10.004;2023-11-19T04:34:06;5.70;99.90
45066;DHT22;30830;53.704;10.004;2023-11-19T04:36:34;5.70;99.90
45066;DHT22;30830;53.704;10.004;2023-11-19T04:39:01;5.70;99.90
45066;DHT22;30830;53.704;10.004;2023-11-19T04:41:27;5.70;99.90
45066;DHT22;30830;53.704;10.004;2023-11-19T04:43:55;5.80;99.90
45066;DHT22;30830;53.704;10.004;2023-11-19T04:46:21;5.80;99.90
45066;DHT22;30830;53.704;10.004;2023-11-19T04:48:47;5.80;99.90
45066;DHT22;30830;53.704;10.004;2023-11-19T04:51:12;5.80;99.90
45066;DHT22;30830;53.704;10.004;2023-11-19T04:53:38;5.80;99.90
45066;DHT22;30830;53.704;10.004;2023-11-19T04:56:12;5.80;99.90
45066;DHT22;30830;53.704;10.004;2023-11-19T04:58:38;5.80;99.90
45066;DHT22;30830;53.704;10.004;2023-11-19T05:01:04;5.80;99.90
45066;DHT22;30830;53.704;10.004;2023-11-19T05:03:31;5.90;99.90
45066;DHT22;30830;53.704;10.004;2023-11-19T05:05:57;5.90;99.90
45066;DHT22;30830;53.704;10.004;2023-11-19T05:08:22;5.90;99.90
45066;DHT22;30830;53.704;10.004;2023-11-19T05:10:48;5.90;99.90
45066;DHT22;30830;53.704;10.004;2023-11-19T05:13:14;6.00;99.90
45066;DHT22;30830;53.704;10.004;2023-11-19T05:15:40;6.00;99.90
45066;DHT22;30830;53.704;10.004;2023-11-19T05:18:06;6.00;99.90
45066;DHT22;30830;53.704;10.004;2023-11-19T05:20:31;6.00;99.90
45066;DHT22;30830;53.704;10.004;2023-11-19T05:22:57;6.00;99.90
45066;DHT22;30830;53.704;10.004;2023-11-19T05:25:25;6.00;99.90
45066;DHT22;30830;53.704;10.004;2023-11-19T05:27:52;6.00;99.90
45066;DHT22;30830;53.704;10.004;2023-11-19T05:30:17;6.10;99.90
45066;DHT22;30830;53.704;10.004;2023-11-19T05:32:43;6.10;99.90
45066;DHT22;30830;53.704;10.004;2023-11-19T05:35:08;6.10;99.90
45066;DHT22;30830;53.704;10.004;2023-11-19T05:37:34;6.20;99.90
45066;DHT22;30830;53.704;10.004;2023-11-19T05:40:00;6.20;99.90
45066;DHT22;30830;53.704;10.004;2023-11-19T05:42:28;6.20;99.90
45066;DHT22;30830;53.704;10.004;2023-11-19T05:44:54;6.20;99.90
45066;DHT22;30830;53.704;10.004;2023-11-19T05:47:19;6.20;99.90
45066;DHT22;30830;53.704;10.004;2023-11-19T05:49:45;6.20;99.90
45066;DHT22;30830;53.704;10.004;2023-11-19T05:52:10;6.30;99.90
45066;DHT22;30830;53.704;10.004;2023-11-19T05:54:37;6.30;99.90
45066;DHT22;30830;53.704;10.004;2023-11-19T05:57:04;6.30;99.90
45066;DHT22;30830;53.704;10.004;2023-11-19T05:59:30;6.30;99.90
45066;DHT22;30830;53.704;10.004;2023-11-19T06:01:57;6.40;99.90
45066;DHT22;30830;53.704;10.004;2023-11-19T06:04:23;6.40;99.90
45066;DHT22;30830;53.704;10.004;2023-11-19T06:06:48;6.50;99.90
45066;DHT22;30830;53.704;10.004;2023-11-19T06:09:14;6.50;99.90
45066;DHT22;30830;53.704;10.004;2023-11-19T06:11:39;6.50;99.90
45066;DHT22;30830;53.704;10.004;2023-11-19T06:14:06;6.50;99.90
45066;DHT22;30830;53.704;10.004;2023-11-19T06:16:32;6.60;99.90
45066;DHT22;30830;53.704;10.004;2023-11-19T06:18:58;6.70;99.90
45066;DHT22;30830;53.704;10.004;2023-11-19T06:21:23;6.70;99.90
45066;DHT22;30830;53.704;10.004;2023-11-19T06:23:50;6.80;99.90
45066;DHT22;30830;53.704;10.004;2023-11-19T06:26:17;6.90;99.90
45066;DHT22;30830;53.704;10.004;2023-11-19T06:28:43;7.00;99.90
45066;DHT22;30830;53.704;10.004;2023-11-19T06:31:09;7.20;99.90
45066;DHT22;30830;53.704;10.004;2023-11-19T06:33:35;7.30;99.90
45066;DHT22;30830;53.704;10.004;2023-11-19T06:36:00;7.50;99.90
45066;DHT22;30830;53.704;10.004;2023-11-19T06:38:26;7.70;99.90
45066;DHT22;30830;53.704;10.004;2023-11-19T06:40:51;7.80;99.90
45066;DHT22;30830;53.704;10.004;2023-11-19T06:43:17;7.90;99.90
45066;DHT22;30830;53.704;10.004;2023-11-19T06:45:43;8.10;99.90
45066;DHT22;30830;53.704;10.004;2023-11-19T06:48:08;8.20;99.90
45066;DHT22;30830;53.704;10.004;2023-11-19T06:50:34;8.30;99.90
45066;DHT22;30830;53.704;10.004;2023-11-19T06:52:59;8.40;99.90
45066;DHT22;30830;53.704;10.004;2023-11-19T06:55:26;8.50;99.90
45066;DHT22;30830;53.704;10.004;2023-11-19T06:57:51;8.60;99.90
45066;DHT22;30830;53.704;10.004;2023-11-19T07:00:17;8.70;99.90
45066;DHT22;30830;53.704;10.004;2023-11-19T07:02:43;8.70;99.90
45066;DHT22;30830;53.704;10.004;2023-11-19T07:05:10;8.80;99.90
45066;DHT22;30830;53.704;10.004;2023-11-19T07:07:37;8.90;99.90
45066;DHT22;30830;53.704;10.004;2023-11-19T07:10:03;9.10;99.90
45066;DHT22;30830;53.704;10.004;2023-11-19T07:12:30;9.20;99.90
45066;DHT22;30830;53.704;10.004;2023-11-19T07:14:55;9.30;99.90
45066;DHT22;30830;53.704;10.004;2023-11-19T07:17:21;9.40;99.90
45066;DHT22;30830;53.704;10.004;2023-11-19T07:19:49;9.50;99.90
45066;DHT22;30830;53.704;10.004;2023-11-19T07:22:14;9.60;99.90
45066;DHT22;30830;53.704;10.004;2023-11-19T07:24:40;9.60;99.90
45066;DHT22;30830;53.704;10.004;2023-11-19T07:27:07;9.70;99.90
45066;DHT22;30830;53.704;10.004;2023-11-19T07:29:34;9.70;99.90
45066;DHT22;30830;53.704;10.004;2023-11-19T07:32:00;9.80;99.90
45066;DHT22;30830;53.704;10.004;2023-11-19T07:34:27;9.80;99.90
45066;DHT22;30830;53.704;10.004;2023-11-19T07:36:53;9.90;99.90
45066;DHT22;30830;53.704;10.004;2023-11-19T07:39:18;9.90;99.90
45066;DHT22;30830;53.704;10.004;2023-11-19T07:41:46;9.90;99.90
45066;DHT22;30830;53.704;10.004;2023-11-19T07:44:11;9.90;99.90
45066;DHT22;30830;53.704;10.004;2023-11-19T07:46:37;9.90;99.90
45066;DHT22;30830;53.704;10.004;2023-11-19T07:49:02;10.00;99.90
45066;DHT22;30830;53.704;10.004;2023-11-19T07:51:28;10.00;99.90
45066;DHT22;30830;53.704;10.004;2023-11-19T07:53:54;10.00;99.90
45066;DHT22;30830;53.704;10.004;2023-11-19T07:56:19;10.00;99.90
45066;DHT22;30830;53.704;10.004;2023-11-19T07:58:45;10.00;99.90
45066;DHT22;30830;53.704;10.004;2023-11-19T08:01:10;10.10;99.90
45066;DHT22;30830;53.704;10.004;2023-11-19T08:03:36;10.20;99.90
45066;DHT22;30830;53.704;10.004;2023-11-19T08:06:03;10.20;99.90
45066;DHT22;30830;53.704;10.004;2023-11-19T08:08:28;10.20;99.90
45066;DHT22;30830;53.704;10.004;2023-11-19T08:10:58;10.20;99.90
45066;DHT22;30830;53.704;10.004;2023-11-19T08:13:24;10.20;99.90
45066;DHT22;30830;53.704;10.004;2023-11-19T08:15:50;10.20;99.90
45066;DHT22;30830;53.704;10.004;2023-11-19T08:18:16;10.20;99.90
45066;DHT22;30830;53.704;10.004;2023-11-19T08:20:43;10.20;99.90
45066;DHT22;30830;53.704;10.004;2023-11-19T08:23:10;10.20;99.90
45066;DHT22;30830;53.704;10.004;2023-11-19T08:25:35;10.20;99.90
45066;DHT22;30830;53.704;10.004;2023-11-19T08:28:01;10.20;99.90
45066;DHT22;30830;53.704;10.004;2023-11-19T08:30:29;10.20;99.90
45066;DHT22;30830;53.704;10.004;2023-11-19T08:32:54;10.20;99.90
45066;DHT22;30830;53.704;10.004;2023-11-19T08:35:20;10.30;99.90
45066;DHT22;30830;53.704;10.004;2023-11-19T08:37:46;10.30;99.90
45066;DHT22;30830;53.704;10.004;2023-11-19T08:40:11;10.40;99.90
45066;DHT22;30830;53.704;10.004;2023-11-19T08:42:40;10.40;99.90
45066;DHT22;30830;53.704;10.004;2023-11-19T08:45:07;10.30;99.90
45066;DHT22;30830;53.704;10.004;2023-11-19T08:47:35;10.30;99.90
45066;DHT22;30830;53.704;10.004;2023-11-19T08:50:01;10.30;99.90
45066;DHT22;30830;53.704;10.004;2023-11-19T08:52:26;10.30;99.90
45066;DHT22;30830;53.704;10.004;2023-11-19T08:54:52;10.40;99.90
45066;DHT22;30830;53.704;10.004;2023-11-19T08:57:17;10.40;99.90
45066;DHT22;30830;53.704;10.004;2023-11-19T08:59:43;10.40;99.90
45066;DHT22;30830;53.704;10.004;2023-11-19T09:02:11;10.40;99.90
45066;DHT22;30830;53.704;10.004;2023-11-19T09:04:36;10.50;99.90
45066;DHT22;30830;53.704;10.004;2023-11-19T09:07:02;10.50;99.90
45066;DHT22;30830;53.704;10.004;2023-11-19T09:09:28;10.60;99.90
45066;DHT22;30830;53.704;10.004;2023-11-19T09:11:54;10.60;99.90
45066;DHT22;30830;53.704;10.004;2023-11-19T09:14:20;10.60;99.90
45066;DHT22;30830;53.704;10.004;2023-11-19T09:16:49;10.60;99.90
45066;DHT22;30830;53.704;10.004;2023-11-19T09:19:15;10.70;99.90
45066;DHT22;30830;53.704;10.004;2023-11-19T09:21:40;10.70;99.90
45066;DHT22;30830;53.704;10.004;2023-11-19T09:24:06;10.80;99.90
45066;DHT22;30830;53.704;10.004;2023-11-19T09:26:33;10.80;99.90
45066;DHT22;30830;53.704;10.004;2023-11-19T09:28:58;10.80;99.90
45066;DHT22;30830;53.704;10.004;2023-11-19T09:31:24;10.80;99.90
45066;DHT22;30830;53.704;10.004;2023-11-19T09:33:49;10.80;99.90
45066;DHT22;30830;53.704;10.004;2023-11-19T09:36:15;10.90;99.90
45066;DHT22;30830;53.704;10.004;2023-11-19T09:38:42;10.90;99.90
45066;DHT22;30830;53.704;10.004;2023-11-19T09:41:09;10.90;99.90
45066;DHT22;30830;53.704;10.004;2023-11-19T09:43:38;11.00;99.90
45066;DHT22;30830;53.704;10.004;2023-11-19T09:46:09;11.00;99.90
45066;DHT22;30830;53.704;10.004;2023-11-19T09:48:37;11.00;99.90
45066;DHT22;30830;53.704;10.004;2023-11-19T09:51:04;11.00;99.90
45066;DHT22;30830;53.704;10.004;2023-11-19T09:53:31;11.00;99.90
45066;DHT22;30830;53.704;10.004;2023-11-19T09:56:01;11.00;99.90
45066;DHT22;30830;53.704;10.004;2023-11-19T09:58:29;11.00;99.90
45066;DHT22;30830;53.704;10.004;2023-11-19T10:00:55;11.00;99.90
45066;DHT22;30830;53.704;10.004;2023-11-19T10:03:22;11.00;99.90
45066;DHT22;30830;53.704;10.004;2023-11-19T10:05:48;11.00;99.90
45066;DHT22;30830;53.704;10.004;2023-11-19T10:08:14;11.10;99.90
45066;DHT22;30830;53.704;10.004;2023-11-19T10:10:39;11.10;99.90
45066;DHT22;30830;53.704;10.004;2023-11-19T10:13:05;11.10;99.90
45066;DHT22;30830;53.704;10.004;2023-11-19T10:15:36;11.10;99.90
45066;DHT22;30830;53.704;10.004;2023-11-19T10:18:02;11.10;99.90
45066;DHT22;30830;53.704;10.004;2023-11-19T10:20:35;11.10;99.90
45066;DHT22;30830;53.704;10.004;2023-11-19T10:23:01;11.10;99.90
45066;DHT22;30830;53.704;10.004;2023-11-19T10:25:28;11.10;99.90
45066;DHT22;30830;53.704;10.004;2023-11-19T10:27:55;11.10;99.90
45066;DHT22;30830;53.704;10.004;2023-11-19T10:30:28;11.20;99.90
45066;DHT22;30830;53.704;10.004;2023-11-19T10:33:03;11.20;99.90
45066;DHT22;30830;53.704;10.004;2023-11-19T10:35:29;11.20;99.90
45066;DHT22;30830;53.704;10.004;2023-11-19T10:37:54;11.20;99.90
45066;DHT22;30830;53.704;10.004;2023-11-19T10:40:20;11.30;99.90
45066;DHT22;30830;53.704;10.004;2023-11-19T10:42:46;11.30;99.90
45066;DHT22;30830;53.704;10.004;2023-11-19T10:45:23;11.30;99.90
45066;DHT22;30830;53.704;10.004;2023-11-19T10:47:51;11.30;99.90
45066;DHT22;30830;53.704;10.004;2023-11-19T10:50:17;11.40;99.90
45066;DHT22;30830;53.704;10.004;2023-11-19T10:52:44;11.40;99.90
45066;DHT22;30830;53.704;10.004;2023-11-19T10:55:11;11.40;99.90
45066;DHT22;30830;53.704;10.004;2023-11-19T10:57:40;11.30;99.90
45066;DHT22;30830;53.704;10.004;2023-11-19T11:00:12;11.30;99.90
45066;DHT22;30830;53.704;10.004;2023-11-19T11:02:41;11.30;99.90
45066;DHT22;30830;53.704;10.004;2023-11-19T11:05:10;11.30;99.90
45066;DHT22;30830;53.704;10.004;2023-11-19T11:07:38;11.30;99.90
45066;DHT22;30830;53.704;10.004;2023-11-19T11:10:06;11.30;99.90
45066;DHT22;30830;53.704;10.004;2023-11-19T11:12:36;11.30;99.90
45066;DHT22;30830;53.704;10.004;2023-11-19T11:15:04;11.30;99.90
45066;DHT22;30830;53.704;10.004;2023-11-19T11:17:32;11.30;99.90
45066;DHT22;30830;53.704;10.004;2023-11-19T11:19:58;11.40;99.90
45066;DHT22;30830;53.704;10.004;2023-11-19T11:22:25;11.40;99.90
45066;DHT22;30830;53.704;10.004;2023-11-19T11:25:11;11.40;99.90
45066;DHT22;30830;53.704;10.004;2023-11-19T11:28:27;11.40;99.90
45066;DHT22;30830;53.704;10.004;2023-11-19T11:33:54;11.30;99.90
45066;DHT22;30830;53.704;10.004;2023-11-19T11:36:25;11.40;99.90
45066;DHT22;30830;53.704;10.004;2023-11-19T11:38:51;11.40;99.90
45066;DHT22;30830;53.704;10.004;2023-11-19T11:41:22;11.50;99.90
45066;DHT22;30830;53.704;10.004;2023-11-19T11:43:50;11.60;99.90
45066;DHT22;30830;53.704;10.004;2023-11-19T11:49:02;11.60;99.90
45066;DHT22;30830;53.704;10.004;2023-11-19T11:54:31;11.50;99.90
45066;DHT22;30830;53.704;10.004;2023-11-19T11:59:37;11.40;99.90
45066;DHT22;30830;53.704;10.004;2023-11-19T12:02:03;11.40;99.90
45066;DHT22;30830;53.704;10.004;2023-11-19T12:04:29;11.40;99.90
45066;DHT22;30830;53.704;10.004;2023-11-19T12:07:16;11.30;99.90
45066;DHT22;30830;53.704;10.004;2023-11-19T12:09:42;11.30;99.90
45066;DHT22;30830;53.704;10.004;2023-11-19T12:12:19;11.30;99.90
45066;DHT22;30830;53.704;10.004;2023-11-19T12:15:06;11.30;99.90
45066;DHT22;30830;53.704;10.004;2023-11-19T12:17:42;11.30;99.90
45066;DHT22;30830;53.704;10.004;2023-11-19T12:20:10;11.30;99.90
45066;DHT22;30830;53.704;10.004;2023-11-19T12:22:41;11.20;99.90
45066;DHT22;30830;53.704;10.004;2023-11-19T12:25:08;11.30;99.90
45066;DHT22;30830;53.704;10.004;2023-11-19T12:27:46;11.30;99.90
45066;DHT22;30830;53.704;10.004;2023-11-19T12:30:12;11.30;99.90
45066;DHT22;30830;53.704;10.004;2023-11-19T12:32:42;11.20;99.90
45066;DHT22;30830;53.704;10.004;2023-11-19T12:35:10;11.30;99.90
45066;DHT22;30830;53.704;10.004;2023-11-19T12:37:43;11.20;99.90
45066;DHT22;30830;53.704;10.004;2023-11-19T12:40:20;11.20;99.90
45066;DHT22;30830;53.704;10.004;2023-11-19T12:42:47;11.20;99.90
45066;DHT22;30830;53.704;10.004;2023-11-19T12:45:13;11.20;99.90
45066;DHT22;30830;53.704;10.004;2023-11-19T12:47:40;11.20;99.90
45066;DHT22;30830;53.704;10.004;2023-11-19T12:50:06;11.20;99.90
45066;DHT22;30830;53.704;10.004;2023-11-19T12:52:33;11.20;99.90
45066;DHT22;30830;53.704;10.004;2023-11-19T12:54:59;11.30;99.90
45066;DHT22;30830;53.704;10.004;2023-11-19T12:57:42;11.30;99.90
45066;DHT22;30830;53.704;10.004;2023-11-19T13:00:18;11.30;99.90
45066;DHT22;30830;53.704;10.004;2023-11-19T13:02:47;11.20;99.90
45066;DHT22;30830;53.704;10.004;2023-11-19T13:05:23;11.30;99.90
45066;DHT22;30830;53.704;10.004;2023-11-19T13:07:49;11.30;99.90
45066;DHT22;30830;53.704;10.004;2023-11-19T13:10:14;11.20;99.90
45066;DHT22;30830;53.704;10.004;2023-11-19T13:12:41;11.30;99.90
45066;DHT22;30830;53.704;10.004;2023-11-19T13:15:07;11.30;99.90
45066;DHT22;30830;53.704;10.004;2023-11-19T13:17:47;11.30;99.90
45066;DHT22;30830;53.704;10.004;2023-11-19T13:20:13;11.30;99.90
45066;DHT22;30830;53.704;10.004;2023-11-19T13:22:39;11.30;99.90
45066;DHT22;30830;53.704;10.004;2023-11-19T13:25:19;11.30;99.90
45066;DHT22;30830;53.704;10.004;2023-11-19T13:27:46;11.30;99.90
45066;DHT22;30830;53.704;10.004;2023-11-19T13:30:12;11.30;99.90
45066;DHT22;30830;53.704;10.004;2023-11-19T13:32:37;11.30;99.90
45066;DHT22;30830;53.704;10.004;2023-11-19T13:35:05;11.30;99.90
45066;DHT22;30830;53.704;10.004;2023-11-19T13:37:30;11.30;99.90
45066;DHT22;30830;53.704;10.004;2023-11-19T13:39:56;11.30;99.90
45066;DHT22;30830;53.704;10.004;2023-11-19T13:42:21;11.30;99.90
45066;DHT22;30830;53.704;10.004;2023-11-19T13:44:47;11.30;99.90
45066;DHT22;30830;53.704;10.004;2023-11-19T13:47:12;11.30;99.90
45066;DHT22;30830;53.704;10.004;2023-11-19T13:49:39;11.30;99.90
45066;DHT22;30830;53.704;10.004;2023-11-19T13:52:05;11.30;99.90
45066;DHT22;30830;53.704;10.004;2023-11-19T13:54:31;11.20;99.90
45066;DHT22;30830;53.704;10.004;2023-11-19T13:56:56;11.20;99.90
45066;DHT22;30830;53.704;10.004;2023-11-19T13:59:26;11.20;99.90
45066;DHT22;30830;53.704;10.004;2023-11-19T14:01:52;11.20;99.90
45066;DHT22;30830;53.704;10.004;2023-11-19T14:04:18;11.20;99.90
45066;DHT22;30830;53.704;10.004;2023-11-19T14:06:45;11.20;99.90
45066;DHT22;30830;53.704;10.004;2023-11-19T14:09:10;11.20;99.90
45066;DHT22;30830;53.704;10.004;2023-11-19T14:11:36;11.20;99.90
45066;DHT22;30830;53.704;10.004;2023-11-19T14:14:02;11.20;99.90
45066;DHT22;30830;53.704;10.004;2023-11-19T14:16:27;11.20;99.90
45066;DHT22;30830;53.704;10.004;2023-11-19T14:18:53;11.20;99.90
45066;DHT22;30830;53.704;10.004;2023-11-19T14:21:20;11.10;99.90
45066;DHT22;30830;53.704;10.004;2023-11-19T14:23:45;11.10;99.90
45066;DHT22;30830;53.704;10.004;2023-11-19T14:26:11;11.10;99.90
45066;DHT22;30830;53.704;10.004;2023-11-19T14:28:37;11.10;99.90
45066;DHT22;30830;53.704;10.004;2023-11-19T14:31:04;11.00;99.90
45066;DHT22;30830;53.704;10.004;2023-11-19T14:33:29;10.90;99.90
45066;DHT22;30830;53.704;10.004;2023-11-19T14:35:55;10.90;99.90
45066;DHT22;30830;53.704;10.004;2023-11-19T14:38:20;10.90;99.90
45066;DHT22;30830;53.704;10.004;2023-11-19T14:40:46;10.80;99.90
45066;DHT22;30830;53.704;10.004;2023-11-19T14:43:13;10.80;99.90
45066;DHT22;30830;53.704;10.004;2023-11-19T14:45:40;10.70;99.90
45066;DHT22;30830;53.704;10.004;2023-11-19T14:48:06;10.70;99.90
45066;DHT22;30830;53.704;10.004;2023-11-19T14:50:32;10.60;99.90
45066;DHT22;30830;53.704;10.004;2023-11-19T14:52:57;10.50;99.90
45066;DHT22;30830;53.704;10.004;2023-11-19T14:55:23;10.40;99.90
45066;DHT22;30830;53.704;10.004;2023-11-19T14:57:49;10.30;99.90
45066;DHT22;30830;53.704;10.004;2023-11-19T15:00:16;10.20;99.90
45066;DHT22;30830;53.704;10.004;2023-11-19T15:02:42;10.10;99.90
45066;DHT22;30830;53.704;10.004;2023-11-19T15:05:10;10.10;99.90
45066;DHT22;30830;53.704;10.004;2023-11-19T15:07:39;10.00;99.90
45066;DHT22;30830;53.704;10.004;2023-11-19T15:10:06;10.00;99.90
45066;DHT22;30830;53.704;10.004;2023-11-19T15:12:38;9.90;99.90
45066;DHT22;30830;53.704;10.004;2023-11-19T15:15:08;9.90;99.90
45066;DHT22;30830;53.704;10.004;2023-11-19T15:17:35;9.80;99.90
45066;DHT22;30830;53.704;10.004;2023-11-19T15:20:02;9.70;99.90
45066;DHT22;30830;53.704;10.004;2023-11-19T15:22:28;9.70;99.90
45066;DHT22;30830;53.704;10.004;2023-11-19T15:24:53;9.70;99.90
45066;DHT22;30830;53.704;10.004;2023-11-19T15:27:19;9.60;99.90
45066;DHT22;30830;53.704;10.004;2023-11-19T15:29:45;9.60;99.90
45066;DHT22;30830;53.704;10.004;2023-11-19T15:32:10;9.60;99.90
45066;DHT22;30830;53.704;10.004;2023-11-19T15:34:36;9.50;99.90
45066;DHT22;30830;53.704;10.004;2023-11-19T15:37:03;9.50;99.90
45066;DHT22;30830;53.704;10.004;2023-11-19T15:39:29;9.50;99.90